sensor_id;sensor_type;location;lat;lon;timestamp;temperature;humidity
69006;SHT31;56061;51.748;19.620;2022-10-16T02:13:36;11.73;83.81
69006;SHT31;56061;51.748;19.620;2022-10-16T02:16:13;11.71;84.01
69006;SHT31;56061;51.748;19.620;2022-10-16T02:18:41;11.68;84.15
69006;SHT31;56061;51.748;19.620;2022-10-16T02:21:22;11.66;84.24
69006;SHT31;56061;51.748;19.620;2022-10-16T02:23:57;11.65;84.40
69006;SHT31;56061;51.748;19.620;2022-10-16T02:29:36;11.63;84.49
69006;SHT31;56061;51.748;19.620;2022-10-16T02:32:15;11.65;84.36
69006;SHT31;56061;51.748;19.620;2022-10-16T02:34:48;11.63;84.45
69006;SHT31;56061;51.748;19.620;2022-10-16T02:37:16;11.58;84.63
69006;SHT31;56061;51.748;19.620;2022-10-16T02:39:44;11.54;84.67
69006;SHT31;56061;51.748;19.620;2022-10-16T02:42:12;11.53;84.57
69006;SHT31;56061;51.748;19.620;2022-10-16T02:44:40;11.51;84.51
69006;SHT31;56061;51.748;19.620;2022-10-16T02:47:06;11.49;84.36
69006;SHT31;56061;51.748;19.620;2022-10-16T02:49:33;11.48;84.40
69006;SHT31;56061;51.748;19.620;2022-10-16T02:51:59;11.47;84.29
69006;SHT31;56061;51.748;19.620;2022-10-16T02:54:26;11.48;84.29
69006;SHT31;56061;51.748;19.620;2022-10-16T02:56:52;11.48;84.29
69006;SHT31;56061;51.748;19.620;2022-10-16T02:59:18;11.47;84.30
69006;SHT31;56061;51.748;19.620;2022-10-16T03:01:45;11.43;84.40
69006;SHT31;56061;51.748;19.620;2022-10-16T03:04:11;11.38;84.55
69006;SHT31;56061;51.748;19.620;2022-10-16T03:06:38;11.34;84.60
69006;SHT31;56061;51.748;19.620;2022-10-16T03:09:04;11.31;84.66
69006;SHT31;56061;51.748;19.620;2022-10-16T03:11:31;11.32;84.66
69006;SHT31;56061;51.748;19.620;2022-10-16T03:13:57;11.32;84.58
69006;SHT31;56061;51.748;19.620;2022-10-16T03:16:23;11.32;84.64
69006;SHT31;56061;51.748;19.620;2022-10-16T03:18:50;11.30;84.74
69006;SHT31;56061;51.748;19.620;2022-10-16T03:21:16;11.26;84.78
69006;SHT31;56061;51.748;19.620;2022-10-16T03:23:43;11.23;84.97
69006;SHT31;56061;51.748;19.620;2022-10-16T03:26:09;11.19;85.27
69006;SHT31;56061;51.748;19.620;2022-10-16T03:28:36;11.18;85.36
69006;SHT31;56061;51.748;19.620;2022-10-16T03:31:02;11.20;85.45
69006;SHT31;56061;51.748;19.620;2022-10-16T03:33:29;11.22;85.55
69006;SHT31;56061;51.748;19.620;2022-10-16T03:35:55;11.25;85.67
69006;SHT31;56061;51.748;19.620;2022-10-16T03:38:22;11.27;85.61
69006;SHT31;56061;51.748;19.620;2022-10-16T03:40:48;11.27;85.67
69006;SHT31;56061;51.748;19.620;2022-10-16T03:43:15;11.30;85.80
69006;SHT31;56061;51.748;19.620;2022-10-16T03:45:41;11.30;85.73
69006;SHT31;56061;51.748;19.620;2022-10-16T03:48:08;11.30;85.75
69006;SHT31;56061;51.748;19.620;2022-10-16T03:50:35;11.32;85.86
69006;SHT31;56061;51.748;19.620;2022-10-16T03:53:02;11.35;85.93
69006;SHT31;56061;51.748;19.620;2022-10-16T03:55:28;11.38;85.97
69006;SHT31;56061;51.748;19.620;2022-10-16T03:57:55;11.40;86.01
69006;SHT31;56061;51.748;19.620;2022-10-16T04:00:21;11.42;86.11
69006;SHT31;56061;51.748;19.620;2022-10-16T04:02:48;11.43;86.13
69006;SHT31;56061;51.748;19.620;2022-10-16T04:05:14;11.43;86.22
69006;SHT31;56061;51.748;19.620;2022-10-16T04:07:41;11.44;86.31
69006;SHT31;56061;51.748;19.620;2022-10-16T04:10:07;11.47;86.33
69006;SHT31;56061;51.748;19.620;2022-10-16T04:12:34;11.50;86.41
69006;SHT31;56061;51.748;19.620;2022-10-16T04:15:01;11.53;86.51
69006;SHT31;56061;51.748;19.620;2022-10-16T04:17:27;11.57;86.61
69006;SHT31;56061;51.748;19.620;2022-10-16T04:19:54;11.63;86.58
69006;SHT31;56061;51.748;19.620;2022-10-16T04:22:20;11.69;86.56
69006;SHT31;56061;51.748;19.620;2022-10-16T04:24:47;11.73;86.52
69006;SHT31;56061;51.748;19.620;2022-10-16T04:27:13;11.74;86.54
69006;SHT31;56061;51.748;19.620;2022-10-16T04:29:40;11.75;86.59
69006;SHT31;56061;51.748;19.620;2022-10-16T04:32:07;11.77;86.60
69006;SHT31;56061;51.748;19.620;2022-10-16T04:34:35;11.80;86.67
69006;SHT31;56061;51.748;19.620;2022-10-16T04:37:02;11.84;86.71
69006;SHT31;56061;51.748;19.620;2022-10-16T04:39:28;11.89;86.67
69006;SHT31;56061;51.748;19.620;2022-10-16T04:41:55;11.92;86.68
69006;SHT31;56061;51.748;19.620;2022-10-16T04:44:21;11.97;86.69
69006;SHT31;56061;51.748;19.620;2022-10-16T04:46:49;12.01;86.60
69006;SHT31;56061;51.748;19.620;2022-10-16T04:49:17;12.03;86.57
69006;SHT31;56061;51.748;19.620;2022-10-16T04:51:43;12.06;86.64
69006;SHT31;56061;51.748;19.620;2022-10-16T04:54:10;12.09;86.52
69006;SHT31;56061;51.748;19.620;2022-10-16T04:56:36;12.14;86.52
69006;SHT31;56061;51.748;19.620;2022-10-16T04:59:09;12.17;86.50
69006;SHT31;56061;51.748;19.620;2022-10-16T05:01:35;12.21;86.50
69006;SHT31;56061;51.748;19.620;2022-10-16T05:04:02;12.26;86.45
69006;SHT31;56061;51.748;19.620;2022-10-16T05:06:28;12.31;86.41
69006;SHT31;56061;51.748;19.620;2022-10-16T05:08:55;12.34;86.38
69006;SHT31;56061;51.748;19.620;2022-10-16T05:11:21;12.36;86.39
69006;SHT31;56061;51.748;19.620;2022-10-16T05:13:48;12.38;86.43
69006;SHT31;56061;51.748;19.620;2022-10-16T05:16:18;12.44;86.39
69006;SHT31;56061;51.748;19.620;2022-10-16T05:18:45;12.50;86.40
69006;SHT31;56061;51.748;19.620;2022-10-16T05:21:11;12.56;86.34
69006;SHT31;56061;51.748;19.620;2022-10-16T05:23:38;12.64;86.22
69006;SHT31;56061;51.748;19.620;2022-10-16T05:26:04;12.73;86.08
69006;SHT31;56061;51.748;19.620;2022-10-16T05:28:31;12.78;85.98
69006;SHT31;56061;51.748;19.620;2022-10-16T05:30:57;12.79;85.90
69006;SHT31;56061;51.748;19.620;2022-10-16T05:33:25;12.80;85.93
69006;SHT31;56061;51.748;19.620;2022-10-16T05:35:52;12.85;85.84
69006;SHT31;56061;51.748;19.620;2022-10-16T05:38:18;12.90;85.79
69006;SHT31;56061;51.748;19.620;2022-10-16T05:40:51;12.93;85.79
69006;SHT31;56061;51.748;19.620;2022-10-16T05:43:19;12.96;85.74
69006;SHT31;56061;51.748;19.620;2022-10-16T05:45:56;12.98;85.74
69006;SHT31;56061;51.748;19.620;2022-10-16T05:48:28;13.01;85.69
69006;SHT31;56061;51.748;19.620;2022-10-16T05:50:59;13.01;85.69
69006;SHT31;56061;51.748;19.620;2022-10-16T05:53:29;13.02;85.70
69006;SHT31;56061;51.748;19.620;2022-10-16T05:55:59;13.04;85.65
69006;SHT31;56061;51.748;19.620;2022-10-16T05:58:33;13.07;85.66
69006;SHT31;56061;51.748;19.620;2022-10-16T06:01:02;13.13;85.66
69006;SHT31;56061;51.748;19.620;2022-10-16T06:03:33;13.18;85.55
69006;SHT31;56061;51.748;19.620;2022-10-16T06:06:06;13.19;85.40
69006;SHT31;56061;51.748;19.620;2022-10-16T06:08:45;13.17;85.40
69006;SHT31;56061;51.748;19.620;2022-10-16T06:11:15;13.14;85.44
69006;SHT31;56061;51.748;19.620;2022-10-16T06:13:51;13.14;85.48
69006;SHT31;56061;51.748;19.620;2022-10-16T06:16:20;13.15;85.44
69006;SHT31;56061;51.748;19.620;2022-10-16T06:18:47;13.16;85.49
69006;SHT31;56061;51.748;19.620;2022-10-16T06:21:14;13.20;85.50
69006;SHT31;56061;51.748;19.620;2022-10-16T06:23:47;13.25;85.49
69006;SHT31;56061;51.748;19.620;2022-10-16T06:26:16;13.28;85.41
69006;SHT31;56061;51.748;19.620;2022-10-16T06:28:46;13.31;85.40
69006;SHT31;56061;51.748;19.620;2022-10-16T06:31:13;13.34;85.36
69006;SHT31;56061;51.748;19.620;2022-10-16T06:33:41;13.37;85.29
69006;SHT31;56061;51.748;19.620;2022-10-16T06:36:09;13.41;85.27
69006;SHT31;56061;51.748;19.620;2022-10-16T06:38:40;13.48;85.22
69006;SHT31;56061;51.748;19.620;2022-10-16T06:41:09;13.57;85.17
69006;SHT31;56061;51.748;19.620;2022-10-16T06:43:42;13.66;85.00
69006;SHT31;56061;51.748;19.620;2022-10-16T06:46:14;13.73;84.91
69006;SHT31;56061;51.748;19.620;2022-10-16T06:48:44;13.78;84.79
69006;SHT31;56061;51.748;19.620;2022-10-16T06:51:12;13.85;84.68
69006;SHT31;56061;51.748;19.620;2022-10-16T06:53:50;13.91;84.60
69006;SHT31;56061;51.748;19.620;2022-10-16T06:56:29;14.01;84.55
69006;SHT31;56061;51.748;19.620;2022-10-16T06:58:57;14.10;84.47
69006;SHT31;56061;51.748;19.620;2022-10-16T07:01:25;14.18;84.36
69006;SHT31;56061;51.748;19.620;2022-10-16T07:03:52;14.24;84.21
69006;SHT31;56061;51.748;19.620;2022-10-16T07:06:20;14.27;84.06
69006;SHT31;56061;51.748;19.620;2022-10-16T07:08:50;14.31;84.02
69006;SHT31;56061;51.748;19.620;2022-10-16T07:11:18;14.35;83.94
69006;SHT31;56061;51.748;19.620;2022-10-16T07:13:48;14.38;83.88
69006;SHT31;56061;51.748;19.620;2022-10-16T07:16:22;14.43;83.80
69006;SHT31;56061;51.748;19.620;2022-10-16T07:18:53;14.48;83.78
69006;SHT31;56061;51.748;19.620;2022-10-16T07:21:26;14.55;83.72
69006;SHT31;56061;51.748;19.620;2022-10-16T07:23:57;14.61;83.65
69006;SHT31;56061;51.748;19.620;2022-10-16T07:26:27;14.66;83.55
69006;SHT31;56061;51.748;19.620;2022-10-16T07:28:56;14.70;83.50
69006;SHT31;56061;51.748;19.620;2022-10-16T07:31:23;14.78;83.48
69006;SHT31;56061;51.748;19.620;2022-10-16T07:33:51;14.88;83.49
69006;SHT31;56061;51.748;19.620;2022-10-16T07:36:18;15.00;83.40
69006;SHT31;56061;51.748;19.620;2022-10-16T07:38:47;15.10;83.30
69006;SHT31;56061;51.748;19.620;2022-10-16T07:41:14;15.20;82.99
69006;SHT31;56061;51.748;19.620;2022-10-16T07:43:47;15.29;82.87
69006;SHT31;56061;51.748;19.620;2022-10-16T07:46:17;15.40;82.72
69006;SHT31;56061;51.748;19.620;2022-10-16T07:48:45;15.51;82.43
69006;SHT31;56061;51.748;19.620;2022-10-16T07:51:14;15.62;82.18
69006;SHT31;56061;51.748;19.620;2022-10-16T07:53:44;15.74;81.91
69006;SHT31;56061;51.748;19.620;2022-10-16T07:56:11;15.87;81.69
69006;SHT31;56061;51.748;19.620;2022-10-16T07:58:38;16.02;81.48
69006;SHT31;56061;51.748;19.620;2022-10-16T08:01:06;16.18;81.34
69006;SHT31;56061;51.748;19.620;2022-10-16T08:03:37;16.34;81.04
69006;SHT31;56061;51.748;19.620;2022-10-16T08:06:04;16.50;80.81
69006;SHT31;56061;51.748;19.620;2022-10-16T08:08:31;16.61;80.22
69006;SHT31;56061;51.748;19.620;2022-10-16T08:10:58;16.69;79.87
69006;SHT31;56061;51.748;19.620;2022-10-16T08:13:25;16.77;79.66
69006;SHT31;56061;51.748;19.620;2022-10-16T08:15:53;16.85;79.34
69006;SHT31;56061;51.748;19.620;2022-10-16T08:18:20;16.92;78.98
69006;SHT31;56061;51.748;19.620;2022-10-16T08:20:54;16.95;78.46
69006;SHT31;56061;51.748;19.620;2022-10-16T08:23:23;17.00;78.49
69006;SHT31;56061;51.748;19.620;2022-10-16T08:25:55;17.07;78.50
69006;SHT31;56061;51.748;19.620;2022-10-16T08:28:27;17.15;78.27
69006;SHT31;56061;51.748;19.620;2022-10-16T08:30:54;17.24;78.13
69006;SHT31;56061;51.748;19.620;2022-10-16T08:33:22;17.31;77.63
69006;SHT31;56061;51.748;19.620;2022-10-16T08:35:52;17.39;77.75
69006;SHT31;56061;51.748;19.620;2022-10-16T08:38:19;17.51;77.59
69006;SHT31;56061;51.748;19.620;2022-10-16T08:40:47;17.62;77.43
69006;SHT31;56061;51.748;19.620;2022-10-16T08:48:48;17.79;75.98
69006;SHT31;56061;51.748;19.620;2022-10-16T08:51:19;17.78;75.89
69006;SHT31;56061;51.748;19.620;2022-10-16T08:53:57;17.80;75.90
69006;SHT31;56061;51.748;19.620;2022-10-16T08:56:27;17.86;76.02
69006;SHT31;56061;51.748;19.620;2022-10-16T08:58:54;17.89;75.39
69006;SHT31;56061;51.748;19.620;2022-10-16T09:01:41;17.89;75.40
69006;SHT31;56061;51.748;19.620;2022-10-16T09:12:55;18.09;75.13
69006;SHT31;56061;51.748;19.620;2022-10-16T09:15:44;18.17;75.22
69006;SHT31;56061;51.748;19.620;2022-10-16T09:21:19;18.43;74.68
69006;SHT31;56061;51.748;19.620;2022-10-16T09:23:58;18.50;74.27
69006;SHT31;56061;51.748;19.620;2022-10-16T09:26:38;18.53;74.14
69006;SHT31;56061;51.748;19.620;2022-10-16T09:29:05;18.59;74.38
69006;SHT31;56061;51.748;19.620;2022-10-16T09:31:32;18.68;74.17
69006;SHT31;56061;51.748;19.620;2022-10-16T09:34:03;18.79;73.44
69006;SHT31;56061;51.748;19.620;2022-10-16T09:36:35;18.86;73.53
69006;SHT31;56061;51.748;19.620;2022-10-16T09:39:08;18.94;73.16
69006;SHT31;56061;51.748;19.620;2022-10-16T09:41:39;18.99;72.74
69006;SHT31;56061;51.748;19.620;2022-10-16T09:44:16;18.99;72.69
69006;SHT31;56061;51.748;19.620;2022-10-16T09:47:14;18.98;72.23
69006;SHT31;56061;51.748;19.620;2022-10-16T09:49:52;18.99;72.21
69006;SHT31;56061;51.748;19.620;2022-10-16T09:52:28;19.00;72.19
69006;SHT31;56061;51.748;19.620;2022-10-16T09:55:09;19.00;72.17
69006;SHT31;56061;51.748;19.620;2022-10-16T10:00:21;19.05;72.45
69006;SHT31;56061;51.748;19.620;2022-10-16T10:02:50;19.11;72.45
69006;SHT31;56061;51.748;19.620;2022-10-16T10:05:27;19.17;72.35
69006;SHT31;56061;51.748;19.620;2022-10-16T10:07:59;19.15;72.00
69006;SHT31;56061;51.748;19.620;2022-10-16T10:10:33;19.14;72.20
69006;SHT31;56061;51.748;19.620;2022-10-16T10:13:20;19.15;72.25
69006;SHT31;56061;51.748;19.620;2022-10-16T10:15:50;19.16;72.04
69006;SHT31;56061;51.748;19.620;2022-10-16T10:18:18;19.17;72.16
69006;SHT31;56061;51.748;19.620;2022-10-16T10:21:01;19.20;72.09
69006;SHT31;56061;51.748;19.620;2022-10-16T10:23:31;19.23;71.53
69006;SHT31;56061;51.748;19.620;2022-10-16T10:34:41;19.39;71.56
69006;SHT31;56061;51.748;19.620;2022-10-16T10:43:20;19.47;70.78
69006;SHT31;56061;51.748;19.620;2022-10-16T10:49:16;19.54;70.80
69006;SHT31;56061;51.748;19.620;2022-10-16T11:01:26;19.66;70.66
69006;SHT31;56061;51.748;19.620;2022-10-16T11:07:02;19.79;70.85
69006;SHT31;56061;51.748;19.620;2022-10-16T11:09:48;19.87;70.58
69006;SHT31;56061;51.748;19.620;2022-10-16T11:12:44;19.86;70.33
69006;SHT31;56061;51.748;19.620;2022-10-16T11:15:21;19.88;70.55
69006;SHT31;56061;51.748;19.620;2022-10-16T11:17:59;19.89;70.21
69006;SHT31;56061;51.748;19.620;2022-10-16T11:23:26;19.93;70.45
69006;SHT31;56061;51.748;19.620;2022-10-16T11:26:12;19.99;70.25
69006;SHT31;56061;51.748;19.620;2022-10-16T11:28:48;20.03;69.83
69006;SHT31;56061;51.748;19.620;2022-10-16T11:31:40;20.09;69.70
69006;SHT31;56061;51.748;19.620;2022-10-16T11:34:26;20.17;69.68
69006;SHT31;56061;51.748;19.620;2022-10-16T11:37:11;20.29;69.71
69006;SHT31;56061;51.748;19.620;2022-10-16T11:39:44;20.39;69.37
69006;SHT31;56061;51.748;19.620;2022-10-16T11:42:21;20.48;69.25
69006;SHT31;56061;51.748;19.620;2022-10-16T11:53:40;20.84;68.23
69006;SHT31;56061;51.748;19.620;2022-10-16T11:56:24;20.94;67.91
69006;SHT31;56061;51.748;19.620;2022-10-16T11:58:59;21.03;67.74
69006;SHT31;56061;51.748;19.620;2022-10-16T12:01:42;21.07;67.47
69006;SHT31;56061;51.748;19.620;2022-10-16T12:09:36;21.00;67.45
69006;SHT31;56061;51.748;19.620;2022-10-16T12:17:52;20.82;67.65
69006;SHT31;56061;51.748;19.620;2022-10-16T12:23:04;20.67;68.13
69006;SHT31;56061;51.748;19.620;2022-10-16T12:25:36;20.60;68.31
69006;SHT31;56061;51.748;19.620;2022-10-16T12:30:39;20.55;68.67
69006;SHT31;56061;51.748;19.620;2022-10-16T12:33:19;20.58;68.98
69006;SHT31;56061;51.748;19.620;2022-10-16T12:36:11;20.65;69.02
69006;SHT31;56061;51.748;19.620;2022-10-16T12:38:52;20.69;68.96
69006;SHT31;56061;51.748;19.620;2022-10-16T12:41:24;20.68;68.72
69006;SHT31;56061;51.748;19.620;2022-10-16T12:43:50;20.64;68.57
69006;SHT31;56061;51.748;19.620;2022-10-16T12:48:43;20.54;68.72
69006;SHT31;56061;51.748;19.620;2022-10-16T12:56:37;20.57;68.41
69006;SHT31;56061;51.748;19.620;2022-10-16T12:59:30;20.59;68.53
69006;SHT31;56061;51.748;19.620;2022-10-16T13:02:23;20.61;68.37
69006;SHT31;56061;51.748;19.620;2022-10-16T13:08:01;20.52;68.32
69006;SHT31;56061;51.748;19.620;2022-10-16T13:17:11;20.64;69.08
69006;SHT31;56061;51.748;19.620;2022-10-16T13:26:26;20.79;68.91
69006;SHT31;56061;51.748;19.620;2022-10-16T13:29:07;20.76;68.74
69006;SHT31;56061;51.748;19.620;2022-10-16T13:31:36;20.72;68.46
69006;SHT31;56061;51.748;19.620;2022-10-16T13:34:05;20.68;68.38
69006;SHT31;56061;51.748;19.620;2022-10-16T13:36:44;20.61;68.42
69006;SHT31;56061;51.748;19.620;2022-10-16T13:39:22;20.53;68.44
69006;SHT31;56061;51.748;19.620;2022-10-16T13:42:03;20.46;68.61
69006;SHT31;56061;51.748;19.620;2022-10-16T13:44:42;20.40;68.71
69006;SHT31;56061;51.748;19.620;2022-10-16T13:50:02;20.32;68.79
69006;SHT31;56061;51.748;19.620;2022-10-16T13:52:38;20.29;68.86
69006;SHT31;56061;51.748;19.620;2022-10-16T13:55:12;20.28;68.95
69006;SHT31;56061;51.748;19.620;2022-10-16T13:57:42;20.27;68.97
69006;SHT31;56061;51.748;19.620;2022-10-16T14:00:51;20.27;69.08
69006;SHT31;56061;51.748;19.620;2022-10-16T14:03:12;20.26;69.40
69006;SHT31;56061;51.748;19.620;2022-10-16T14:05:48;20.23;69.59
69006;SHT31;56061;51.748;19.620;2022-10-16T14:08:24;20.15;69.53
69006;SHT31;56061;51.748;19.620;2022-10-16T14:10:56;20.05;69.57
69006;SHT31;56061;51.748;19.620;2022-10-16T14:13:45;20.00;69.89
69006;SHT31;56061;51.748;19.620;2022-10-16T14:16:46;19.94;70.04
69006;SHT31;56061;51.748;19.620;2022-10-16T14:19:27;19.86;70.22
69006;SHT31;56061;51.748;19.620;2022-10-16T14:21:56;19.80;70.37
69006;SHT31;56061;51.748;19.620;2022-10-16T14:24:33;19.72;70.50
69006;SHT31;56061;51.748;19.620;2022-10-16T14:27:01;19.66;70.59
69006;SHT31;56061;51.748;19.620;2022-10-16T14:29:29;19.63;70.77
69006;SHT31;56061;51.748;19.620;2022-10-16T14:32:03;19.63;70.95
69006;SHT31;56061;51.748;19.620;2022-10-16T14:34:40;19.59;70.89
69006;SHT31;56061;51.748;19.620;2022-10-16T14:39:53;19.52;71.03
69006;SHT31;56061;51.748;19.620;2022-10-16T14:42:23;19.48;71.02
69006;SHT31;56061;51.748;19.620;2022-10-16T14:44:51;19.46;71.05
69006;SHT31;56061;51.748;19.620;2022-10-16T14:47:22;19.42;71.20
69006;SHT31;56061;51.748;19.620;2022-10-16T14:49:53;19.38;71.29
69006;SHT31;56061;51.748;19.620;2022-10-16T14:52:22;19.33;71.34
69006;SHT31;56061;51.748;19.620;2022-10-16T14:54:49;19.30;71.43
69006;SHT31;56061;51.748;19.620;2022-10-16T14:57:17;19.29;71.55
69006;SHT31;56061;51.748;19.620;2022-10-16T14:59:48;19.26;71.70
69006;SHT31;56061;51.748;19.620;2022-10-16T15:02:22;19.25;71.86
69006;SHT31;56061;51.748;19.620;2022-10-16T15:05:07;19.22;71.89
69006;SHT31;56061;51.748;19.620;2022-10-16T15:07:41;19.19;71.95
69006;SHT31;56061;51.748;19.620;2022-10-16T15:10:09;19.16;72.06
69006;SHT31;56061;51.748;19.620;2022-10-16T15:12:36;19.15;72.05
69006;SHT31;56061;51.748;19.620;2022-10-16T15:15:12;19.10;72.13
69006;SHT31;56061;51.748;19.620;2022-10-16T15:17:51;19.05;72.31
69006;SHT31;56061;51.748;19.620;2022-10-16T15:20:23;18.97;72.44
69006;SHT31;56061;51.748;19.620;2022-10-16T15:22:52;18.88;72.65
69006;SHT31;56061;51.748;19.620;2022-10-16T15:25:30;18.79;72.88
69006;SHT31;56061;51.748;19.620;2022-10-16T15:28:08;18.71;73.04
69006;SHT31;56061;51.748;19.620;2022-10-16T15:30:37;18.66;73.23
69006;SHT31;56061;51.748;19.620;2022-10-16T15:33:05;18.60;73.44
69006;SHT31;56061;51.748;19.620;2022-10-16T15:36:05;18.53;73.58
69006;SHT31;56061;51.748;19.620;2022-10-16T15:38:32;18.43;73.74
69006;SHT31;56061;51.748;19.620;2022-10-16T15:41:00;18.36;73.87
69006;SHT31;56061;51.748;19.620;2022-10-16T15:43:26;18.26;74.07
69006;SHT31;56061;51.748;19.620;2022-10-16T15:45:59;18.18;74.26
69006;SHT31;56061;51.748;19.620;2022-10-16T15:48:29;18.11;74.40
69006;SHT31;56061;51.748;19.620;2022-10-16T15:50:57;18.07;74.52
69006;SHT31;56061;51.748;19.620;2022-10-16T15:53:23;18.03;74.64
69006;SHT31;56061;51.748;19.620;2022-10-16T15:55:50;17.98;74.80
69006;SHT31;56061;51.748;19.620;2022-10-16T15:58:17;17.95;74.93
69006;SHT31;56061;51.748;19.620;2022-10-16T16:00:44;17.91;75.02
69006;SHT31;56061;51.748;19.620;2022-10-16T16:03:10;17.84;75.17
69006;SHT31;56061;51.748;19.620;2022-10-16T16:05:37;17.76;75.34
69006;SHT31;56061;51.748;19.620;2022-10-16T16:08:11;17.67;75.59
69006;SHT31;56061;51.748;19.620;2022-10-16T16:10:38;17.59;75.74
69006;SHT31;56061;51.748;19.620;2022-10-16T16:13:04;17.54;75.83
69006;SHT31;56061;51.748;19.620;2022-10-16T16:15:31;17.46;76.03
69006;SHT31;56061;51.748;19.620;2022-10-16T16:17:57;17.38;76.24
69006;SHT31;56061;51.748;19.620;2022-10-16T16:20:24;17.33;76.42
69006;SHT31;56061;51.748;19.620;2022-10-16T16:22:50;17.28;76.58
69006;SHT31;56061;51.748;19.620;2022-10-16T16:25:17;17.24;76.71
69006;SHT31;56061;51.748;19.620;2022-10-16T16:27:43;17.18;76.83
69006;SHT31;56061;51.748;19.620;2022-10-16T16:30:10;17.12;76.97
69006;SHT31;56061;51.748;19.620;2022-10-16T16:32:44;17.03;77.12
69006;SHT31;56061;51.748;19.620;2022-10-16T16:35:11;16.98;77.28
69006;SHT31;56061;51.748;19.620;2022-10-16T16:37:37;16.94;77.38
69006;SHT31;56061;51.748;19.620;2022-10-16T16:40:04;16.91;77.47
69006;SHT31;56061;51.748;19.620;2022-10-16T16:42:31;16.89;77.62
69006;SHT31;56061;51.748;19.620;2022-10-16T16:44:57;16.86;77.74
69006;SHT31;56061;51.748;19.620;2022-10-16T16:47:24;16.80;77.87
69006;SHT31;56061;51.748;19.620;2022-10-16T16:49:51;16.76;78.02
69006;SHT31;56061;51.748;19.620;2022-10-16T16:52:17;16.72;78.11
69006;SHT31;56061;51.748;19.620;2022-10-16T16:54:44;16.67;78.24
69006;SHT31;56061;51.748;19.620;2022-10-16T16:57:18;16.66;78.36
69006;SHT31;56061;51.748;19.620;2022-10-16T16:59:46;16.64;78.47
69006;SHT31;56061;51.748;19.620;2022-10-16T17:02:13;16.64;78.49
69006;SHT31;56061;51.748;19.620;2022-10-16T17:04:39;16.64;78.56
69006;SHT31;56061;51.748;19.620;2022-10-16T17:07:06;16.63;78.64
69006;SHT31;56061;51.748;19.620;2022-10-16T17:09:32;16.61;78.66
69006;SHT31;56061;51.748;19.620;2022-10-16T17:11:59;16.58;78.78
69006;SHT31;56061;51.748;19.620;2022-10-16T17:14:26;16.55;78.88
69006;SHT31;56061;51.748;19.620;2022-10-16T17:16:52;16.53;78.94
69006;SHT31;56061;51.748;19.620;2022-10-16T17:19:19;16.51;78.95
69006;SHT31;56061;51.748;19.620;2022-10-16T17:21:49;16.52;78.79
69006;SHT31;56061;51.748;19.620;2022-10-16T17:24:17;16.54;78.92
69006;SHT31;56061;51.748;19.620;2022-10-16T17:26:46;16.54;78.58
69006;SHT31;56061;51.748;19.620;2022-10-16T17:29:14;16.51;78.60
69006;SHT31;56061;51.748;19.620;2022-10-16T17:31:43;16.47;78.44
69006;SHT31;56061;51.748;19.620;2022-10-16T17:34:11;16.40;78.36
69006;SHT31;56061;51.748;19.620;2022-10-16T17:36:38;16.35;78.54
69006;SHT31;56061;51.748;19.620;2022-10-16T17:39:10;16.29;78.79
69006;SHT31;56061;51.748;19.620;2022-10-16T17:41:39;16.24;78.76
69006;SHT31;56061;51.748;19.620;2022-10-16T17:44:06;16.16;78.03
69006;SHT31;56061;51.748;19.620;2022-10-16T17:46:33;16.09;78.31
69006;SHT31;56061;51.748;19.620;2022-10-16T17:49:06;16.05;78.39
69006;SHT31;56061;51.748;19.620;2022-10-16T17:51:32;16.01;78.81
69006;SHT31;56061;51.748;19.620;2022-10-16T17:54:00;15.98;78.91
69006;SHT31;56061;51.748;19.620;2022-10-16T17:56:28;15.92;78.76
69006;SHT31;56061;51.748;19.620;2022-10-16T17:58:56;15.85;78.80
69006;SHT31;56061;51.748;19.620;2022-10-16T18:03:59;15.73;78.88
69006;SHT31;56061;51.748;19.620;2022-10-16T18:06:30;15.68;79.32
69006;SHT31;56061;51.748;19.620;2022-10-16T18:08:58;15.65;79.58
69006;SHT31;56061;51.748;19.620;2022-10-16T18:11:25;15.60;79.70
69006;SHT31;56061;51.748;19.620;2022-10-16T18:13:54;15.54;79.52
69006;SHT31;56061;51.748;19.620;2022-10-16T18:16:23;15.47;80.04
69006;SHT31;56061;51.748;19.620;2022-10-16T18:18:53;15.41;80.49
69006;SHT31;56061;51.748;19.620;2022-10-16T18:21:22;15.36;80.68
69006;SHT31;56061;51.748;19.620;2022-10-16T18:23:52;15.32;80.84
69006;SHT31;56061;51.748;19.620;2022-10-16T18:26:20;15.29;81.07
69006;SHT31;56061;51.748;19.620;2022-10-16T18:28:50;15.27;81.27
69006;SHT31;56061;51.748;19.620;2022-10-16T18:31:19;15.27;81.48
69006;SHT31;56061;51.748;19.620;2022-10-16T18:33:48;15.26;81.63
69006;SHT31;56061;51.748;19.620;2022-10-16T18:36:19;15.25;81.74
69006;SHT31;56061;51.748;19.620;2022-10-16T18:38:56;15.23;81.83
69006;SHT31;56061;51.748;19.620;2022-10-16T18:41:24;15.21;82.00
69006;SHT31;56061;51.748;19.620;2022-10-16T18:43:52;15.20;82.03
69006;SHT31;56061;51.748;19.620;2022-10-16T18:46:19;15.20;82.06
69006;SHT31;56061;51.748;19.620;2022-10-16T18:48:48;15.20;82.15
69006;SHT31;56061;51.748;19.620;2022-10-16T18:51:20;15.21;82.15
69006;SHT31;56061;51.748;19.620;2022-10-16T18:53:52;15.20;82.20
69006;SHT31;56061;51.748;19.620;2022-10-16T18:56:22;15.18;82.27
69006;SHT31;56061;51.748;19.620;2022-10-16T18:58:50;15.16;82.34
69006;SHT31;56061;51.748;19.620;2022-10-16T19:01:24;15.14;82.41
69006;SHT31;56061;51.748;19.620;2022-10-16T19:03:59;15.12;82.42
69006;SHT31;56061;51.748;19.620;2022-10-16T19:06:31;15.10;82.47
69006;SHT31;56061;51.748;19.620;2022-10-16T19:09:01;15.10;82.55
69006;SHT31;56061;51.748;19.620;2022-10-16T19:11:29;15.09;82.55
69006;SHT31;56061;51.748;19.620;2022-10-16T19:13:57;15.10;82.57
69006;SHT31;56061;51.748;19.620;2022-10-16T19:16:28;15.11;82.58
69006;SHT31;56061;51.748;19.620;2022-10-16T19:18:59;15.11;82.61
69006;SHT31;56061;51.748;19.620;2022-10-16T19:21:29;15.10;82.56
69006;SHT31;56061;51.748;19.620;2022-10-16T19:23:57;15.07;82.53
69006;SHT31;56061;51.748;19.620;2022-10-16T19:26:27;15.02;82.55
69006;SHT31;56061;51.748;19.620;2022-10-16T19:28:56;14.98;82.58
69006;SHT31;56061;51.748;19.620;2022-10-16T19:31:27;14.96;82.58
69006;SHT31;56061;51.748;19.620;2022-10-16T19:33:56;14.92;82.57
69006;SHT31;56061;51.748;19.620;2022-10-16T19:36:26;14.90;82.70
69006;SHT31;56061;51.748;19.620;2022-10-16T19:38:59;14.90;82.68
69006;SHT31;56061;51.748;19.620;2022-10-16T19:41:30;14.90;82.50
69006;SHT31;56061;51.748;19.620;2022-10-16T19:44:00;14.89;82.60